Blue Star Naxos — SZUI — position and weather

sailwx.info

Track history (hours):
 
Tides and Currents Weather Stations Pressure Air Temp Water Temp Dewpoint Dewpoint Depression Visibility Wind Speed Wind Dir Waves Ship Positions

Blue Star Naxos

Last reported at 2017-Dec-15 08:01 UTC. Time now 2017-Dec-15 08:30 UTC.
Position N 37°04' E 025°48'.

Length 124 m; draft 5 m.

Type: Passenger vessel. MMSI: 239923000.

Date/timePositionNaut miles runAvg speedWind from/ knotsBaromVisibWave heightAir tempDewpointWater temp
2017-Dec-15 08:01N 37°04' E 025°48'1122.6
2017-Dec-15 07:30N 36°55' E 025°56'1 2.5
2017-Dec-15 07:01N 36°56' E 025°55'1122.8
2017-Dec-15 06:31N 37°05' E 025°47'816.7
2017-Dec-15 06:01N 37°10' E 025°38'1019.4
2017-Dec-15 05:31N 37°10' E 025°26'4 8.7
2017-Dec-15 05:00N 37°06' E 025°22'714.6
2017-Dec-15 04:30N 37°10' E 025°14'7 8.6
2017-Dec-15 03:45N 37°05' E 025°08'2316.4
2017-Dec-15 02:20N 37°26' E 024°57'2216.5
2017-Dec-15 01:00N 37°31' E 024°30'1020.0
2017-Dec-15 00:30N 37°31' E 024°17'40 6.7
2017-Dec-14 18:30N 37°57' E 023°38'0 0.0
2017-Dec-14 18:00N 37°57' E 023°38'0 0.0
2017-Dec-14 17:30N 37°57' E 023°38'0 0.0
2017-Dec-14 17:00N 37°57' E 023°38'0 0.0
2017-Dec-14 16:30N 37°57' E 023°38'0 0.0
2017-Dec-14 16:00N 37°57' E 023°38'0 0.0
2017-Dec-14 15:00N 37°57' E 023°38'0 0.0
2017-Dec-14 14:31N 37°57' E 023°38'0 0.0
2017-Dec-14 14:00N 37°57' E 023°38'0 0.0
2017-Dec-14 13:30N 37°57' E 023°38'0 0.1
2017-Dec-14 13:00N 37°57' E 023°38'918.3
2017-Dec-14 12:30N 37°48' E 023°41'1122.0
2017-Dec-14 12:00N 37°40' E 023°50'1522.5
2017-Dec-14 11:21N 37°33' E 024°07'822.3
2017-Dec-14 11:00N 37°31' E 024°16'1122.2
2017-Dec-14 10:30N 37°28' E 024°30'1122.3
2017-Dec-14 09:59N 37°21' E 024°41'1122.2
2017-Dec-14 09:31N 37°15' E 024°52'1122.3
2017-Dec-14 09:01N 37°08' E 025°03'5 6.9
2017-Dec-14 08:16N 37°05' E 025°09'415.5
2017-Dec-14 07:59N 37°09' E 025°12'918.3
2017-Dec-14 07:31N 37°06' E 025°22'0 0.0
2017-Dec-14 07:00N 37°06' E 025°22'1316.0
2017-Dec-14 06:12N 37°10' E 025°38'422.0
2017-Dec-14 06:01N 37°08' E 025°42'713.9
2017-Dec-14 05:31N 37°03' E 025°48'1122.5
2017-Dec-14 05:00N 36°54' E 025°57'4 7.8
2017-Dec-14 04:31N 36°57' E 026°01'1122.0
2017-Dec-14 04:00N 36°49' E 026°10'1122.7
2017-Dec-14 03:31N 36°39' E 026°18'5 3.2
2017-Dec-14 01:55N 36°35' E 026°21'718.3
2017-Dec-14 01:30N 36°41' E 026°16'1019.4
2017-Dec-14 01:00N 36°49' E 026°10'1019.1
2017-Dec-14 00:30N 36°57' E 026°02'3 6.9
2017-Dec-14 00:00N 36°54' E 025°58'612.9
2017-Dec-13 23:31N 36°59' E 025°53'816.4
2017-Dec-13 23:01N 37°06' E 025°48'2010.8
2017-Dec-13 21:07N 37°06' E 025°22'216.0
2017-Dec-13 21:00N 37°08' E 025°21'917.9
2017-Dec-13 20:29N 37°07' E 025°09'2 3.4
2017-Dec-13 19:53N 37°05' E 025°09'821.1
2017-Dec-13 19:31N 37°10' E 025°01'1222.2
2017-Dec-13 18:57N 37°17' E 024°48'1022.1
2017-Dec-13 18:30N 37°23' E 024°38'1122.2
2017-Dec-13 18:00N 37°29' E 024°27'1122.2
2017-Dec-13 17:30N 37°32' E 024°13'1122.0
2017-Dec-13 17:01N 37°35' E 023°60'1322.1
2017-Dec-13 16:26N 37°39' E 023°45'922.0
2017-Dec-13 16:00N 37°47' E 023°39'918.9
2017-Dec-13 15:30N 37°57' E 023°38'0 0.3
2017-Dec-13 15:00N 37°57' E 023°38'0 0.0
2017-Dec-13 14:30N 37°57' E 023°38'0 0.0
2017-Dec-13 14:00N 37°57' E 023°38'0 0.0
2017-Dec-13 13:30N 37°57' E 023°38'0 0.0
2017-Dec-13 13:00N 37°57' E 023°38'815.2
2017-Dec-13 12:30N 37°49' E 023°41'1122.0
2017-Dec-13 12:00N 37°41' E 023°49'1722.8
2017-Dec-13 11:15N 37°33' E 024°09'1122.6
2017-Dec-13 10:45N 37°30' E 024°22'622.3
2017-Dec-13 10:29N 37°28' E 024°29'1122.8
2017-Dec-13 10:00N 37°22' E 024°40'1122.9
2017-Dec-13 09:30N 37°15' E 024°52'1122.8
2017-Dec-13 09:00N 37°08' E 025°03'5 7.4
2017-Dec-13 08:19N 37°05' E 025°09'514.0
2017-Dec-13 07:59N 37°09' E 025°12'817.1
2017-Dec-13 07:30N 37°06' E 025°22'0 0.5
2017-Dec-13 07:01N 37°06' E 025°22'713.0
2017-Dec-13 06:31N 36°60' E 025°20'1019.2
2017-Dec-13 06:00N 36°53' E 025°28'2 3.6
2017-Dec-13 05:30N 36°52' E 025°31'4 8.8
2017-Dec-13 05:00N 36°54' E 025°36'510.6
2017-Dec-13 04:31N 36°54' E 025°42'917.7
2017-Dec-13 04:01N 36°50' E 025°52'0 0.1
2017-Dec-13 03:30N 36°50' E 025°52'0 0.0
2017-Dec-13 03:00N 36°50' E 025°52'0 0.0
2017-Dec-13 02:30N 36°50' E 025°52'0 0.0
2017-Dec-13 02:00N 36°50' E 025°52'0 0.0
2017-Dec-13 01:30N 36°50' E 025°52'2 3.9
2017-Dec-13 01:01N 36°50' E 025°49'1019.8
2017-Dec-13 00:29N 36°55' E 025°38'4 9.5
2017-Dec-13 00:00N 36°54' E 025°33'3 6.4
2017-Dec-12 23:30N 36°52' E 025°29'5 9.5
2017-Dec-12 23:01N 36°55' E 025°25'1019.9
2017-Dec-12 22:31N 37°03' E 025°18'5 9.1
2017-Dec-12 22:00N 37°06' E 025°22'612.1
2017-Dec-12 21:30N 37°10' E 025°16'815.8
2017-Dec-12 21:00N 37°05' E 025°08'3 5.4
2017-Dec-12 20:30N 37°07' E 025°06'1121.9
2017-Dec-12 20:00N 37°18' E 025°02'1018.4
2017-Dec-12 19:29N 37°26' E 024°57'610.3
2017-Dec-12 18:56N 37°31' E 024°52'922.5
2017-Dec-12 18:31N 37°31' E 024°41'1122.4
2017-Dec-12 18:01N 37°31' E 024°26'1122.1
2017-Dec-12 17:31N 37°32' E 024°13'2122.1
2017-Dec-12 16:35N 37°38' E 023°48'222.0
2017-Dec-12 16:30N 37°39' E 023°46'1121.2
2017-Dec-12 16:00N 37°47' E 023°39'918.8
2017-Dec-12 15:31N 37°57' E 023°38'0 0.3
2017-Dec-12 15:00N 37°57' E 023°38'0 0.0
2017-Dec-12 14:30N 37°57' E 023°38'0 0.0
2017-Dec-12 14:00N 37°57' E 023°38'0 0.0
2017-Dec-12 13:30N 37°57' E 023°38'0 0.0
2017-Dec-12 13:00N 37°57' E 023°38'713.4
2017-Dec-12 12:31N 37°50' E 023°40'1122.3
2017-Dec-12 12:01N 37°41' E 023°48'2023.2
2017-Dec-12 11:10N 37°33' E 024°11'523.0
2017-Dec-12 10:57N 37°31' E 024°16'1022.5
2017-Dec-12 10:30N 37°28' E 024°29'1122.9
2017-Dec-12 10:01N 37°21' E 024°40'1223.0
2017-Dec-12 09:30N 37°15' E 024°52'1123.0
2017-Dec-12 09:01N 37°08' E 025°03'5 5.9
2017-Dec-12 08:13N 37°05' E 025°08'519.5
2017-Dec-12 07:57N 37°09' E 025°13'818.9
2017-Dec-12 07:31N 37°06' E 025°22'0 0.3
2017-Dec-12 07:00N 37°06' E 025°22'714.6
2017-Dec-12 06:30N 37°11' E 025°29'1020.7
2017-Dec-12 06:00N 37°08' E 025°41'815.1
2017-Dec-12 05:30N 37°03' E 025°48'1122.7
2017-Dec-12 05:01N 36°54' E 025°57'3 6.7
2017-Dec-12 04:31N 36°57' E 026°00'1122.1
2017-Dec-12 04:01N 36°49' E 026°10'1122.9
2017-Dec-12 03:31N 36°39' E 026°17'5 3.0
2017-Dec-12 01:45N 36°35' E 026°21'418.1
2017-Dec-12 01:30N 36°39' E 026°18'1020.2
2017-Dec-12 01:00N 36°47' E 026°11'1119.9
2017-Dec-12 00:28N 36°56' E 026°04'510.2
2017-Dec-12 00:00N 36°54' E 025°58'611.8
2017-Dec-11 23:30N 36°58' E 025°53'917.5
2017-Dec-11 23:00N 37°06' E 025°48'815.2
2017-Dec-11 22:30N 37°10' E 025°39'917.9
2017-Dec-11 22:01N 37°12' E 025°29'715.0
2017-Dec-11 21:31N 37°06' E 025°22'0 0.6
2017-Dec-11 21:01N 37°06' E 025°22'1017.6
2017-Dec-11 20:25N 37°07' E 025°09'2 4.3
2017-Dec-11 19:53N 37°05' E 025°08'821.5
2017-Dec-11 19:30N 37°10' E 025°00'1122.4
2017-Dec-11 19:00N 37°17' E 024°49'1122.0
2017-Dec-11 18:30N 37°23' E 024°38'1122.1
2017-Dec-11 18:00N 37°30' E 024°27'1122.4
2017-Dec-11 17:31N 37°32' E 024°13'1122.0
2017-Dec-11 17:00N 37°35' E 023°59'1122.0
2017-Dec-11 16:31N 37°38' E 023°46'1021.0
2017-Dec-11 16:01N 37°47' E 023°39'1019.3
2017-Dec-11 15:31N 37°57' E 023°38'0 0.3
2017-Dec-11 15:01N 37°57' E 023°38'0 0.0
2017-Dec-11 14:31N 37°57' E 023°38'0 0.0
2017-Dec-11 14:01N 37°57' E 023°38'0 0.0
2017-Dec-11 13:31N 37°57' E 023°38'0 0.0
2017-Dec-11 13:01N 37°57' E 023°38'713.9
2017-Dec-11 12:31N 37°50' E 023°40'1122.4
2017-Dec-11 12:01N 37°41' E 023°48'2323.1
2017-Dec-11 11:01N 37°32' E 024°15'022.7
2017-Dec-11 11:00N 37°31' E 024°15'1222.6
2017-Dec-11 10:29N 37°28' E 024°29'1225.2
2017-Dec-11 10:00N 37°21' E 024°41'1020.7
2017-Dec-11 09:31N 37°15' E 024°52'1122.8
2017-Dec-11 09:01N 37°08' E 025°03'5 6.9
2017-Dec-11 08:18N 37°05' E 025°09'415.2
2017-Dec-11 08:01N 37°09' E 025°12'917.3
2017-Dec-11 07:31N 37°06' E 025°22'0 0.0
2017-Dec-11 07:00N 37°06' E 025°22'4 9.0
2017-Dec-11 06:31N 37°03' E 025°18'1121.5
2017-Dec-11 06:00N 36°54' E 025°26'4 8.1
2017-Dec-11 05:31N 36°52' E 025°31'5 9.6
2017-Dec-11 05:00N 36°54' E 025°36'5 9.5
2017-Dec-11 04:30N 36°54' E 025°42'918.4
2017-Dec-11 04:00N 36°50' E 025°52'0 0.1
2017-Dec-11 03:30N 36°50' E 025°52'0 0.0
2017-Dec-11 03:00N 36°50' E 025°52'0 0.0
2017-Dec-11 02:30N 36°50' E 025°52'0 0.0
2017-Dec-11 02:00N 36°50' E 025°52'0 0.0
2017-Dec-11 01:29N 36°50' E 025°52'0 0.0
2017-Dec-11 01:00N 36°50' E 025°52'713.7
2017-Dec-11 00:30N 36°53' E 025°44'714.2
2017-Dec-11 00:00N 36°56' E 025°36'611.6
2017-Dec-10 23:31N 36°53' E 025°30'1 3.0
2017-Dec-10 23:00N 36°52' E 025°28'815.6
2017-Dec-10 22:31N 36°58' E 025°22'916.9
2017-Dec-10 22:00N 37°06' E 025°21'2 3.1
2017-Dec-10 21:30N 37°08' E 025°20'918.5
2017-Dec-10 21:00N 37°07' E 025°09'2 4.3
2017-Dec-10 20:30N 37°05' E 025°08'1121.5
2017-Dec-10 20:00N 37°15' E 025°03'1121.9
2017-Dec-10 19:30N 37°25' E 024°58'510.2
2017-Dec-10 19:00N 37°30' E 024°56'1122.0
2017-Dec-10 18:30N 37°31' E 024°42'1122.6
2017-Dec-10 18:00N 37°31' E 024°28'1122.6
2017-Dec-10 17:30N 37°31' E 024°14'1122.6
2017-Dec-10 17:00N 37°35' E 024°00'1122.5
2017-Dec-10 16:30N 37°39' E 023°47'1121.3
2017-Dec-10 16:01N 37°47' E 023°38'1019.5
2017-Dec-10 15:30N 37°57' E 023°38'0 0.2
2017-Dec-10 15:00N 37°57' E 023°38'0 0.0
2017-Dec-10 14:30N 37°57' E 023°38'0 0.0
2017-Dec-10 14:00N 37°57' E 023°38'0 0.0
2017-Dec-10 13:30N 37°57' E 023°38'3 5.9
2017-Dec-10 13:00N 37°54' E 023°38'1122.5
2017-Dec-10 12:30N 37°44' E 023°44'2021.7
2017-Dec-10 11:35N 37°34' E 024°06'222.3
2017-Dec-10 11:30N 37°34' E 024°08'1020.4
2017-Dec-10 11:00N 37°31' E 024°21'1121.5
2017-Dec-10 10:30N 37°26' E 024°33'1122.0
2017-Dec-10 10:00N 37°20' E 024°44'1121.5
2017-Dec-10 09:30N 37°14' E 024°55'1122.0
2017-Dec-10 09:00N 37°07' E 025°06'3 4.0
2017-Dec-10 08:21N 37°05' E 025°09'514.1
2017-Dec-10 08:01N 37°09' E 025°12'917.3
2017-Dec-10 07:31N 37°06' E 025°22'0 0.1
2017-Dec-10 07:01N 37°06' E 025°22'510.2
2017-Dec-10 06:31N 37°02' E 025°19'1121.3
2017-Dec-10 06:01N 36°54' E 025°27'3 6.3
2017-Dec-10 05:30N 36°52' E 025°31'611.8
2017-Dec-10 05:01N 36°55' E 025°37'612.3
2017-Dec-10 04:30N 36°53' E 025°44'714.5
2017-Dec-10 04:00N 36°50' E 025°52'0 0.1
2017-Dec-10 03:31N 36°50' E 025°52'0 0.0
2017-Dec-10 03:00N 36°50' E 025°52'0 0.0
2017-Dec-10 02:30N 36°50' E 025°52'0 0.0
2017-Dec-10 02:00N 36°50' E 025°52'0 0.0
2017-Dec-10 01:30N 36°50' E 025°52'0 0.0
2017-Dec-10 01:00N 36°50' E 025°52'0 0.0
2017-Dec-10 00:30N 36°50' E 025°52'0 0.0
2017-Dec-10 00:00N 36°50' E 025°52'0 0.0
2017-Dec-09 23:30N 36°50' E 025°52'0 0.0
2017-Dec-09 22:59N 36°50' E 025°52'0 0.0
2017-Dec-09 22:30N 36°50' E 025°52'0 0.0
2017-Dec-09 22:00N 36°50' E 025°52'0 0.0
2017-Dec-09 21:30N 36°50' E 025°52'0 0.0
2017-Dec-09 21:00N 36°50' E 025°52'0 0.0
2017-Dec-09 20:31N 36°50' E 025°52'0 0.0
2017-Dec-09 19:55N 36°50' E 025°52'0 0.0
2017-Dec-09 19:30N 36°50' E 025°52'0 0.0
2017-Dec-09 19:00N 36°50' E 025°52'0 0.0
2017-Dec-09 18:07N 36°50' E 025°52'0 0.0
2017-Dec-09 18:00N 36°50' E 025°52'0 0.0
2017-Dec-09 17:30N 36°50' E 025°52'0 0.0
2017-Dec-09 17:00N 36°50' E 025°52'0 0.0
2017-Dec-09 16:30N 36°50' E 025°52'0 0.0
2017-Dec-09 16:00N 36°50' E 025°52'0 0.0
2017-Dec-09 15:30N 36°50' E 025°52'0 0.0
2017-Dec-09 15:00N 36°50' E 025°52'0 0.0
2017-Dec-09 06:32N 36°50' E 025°52'0 0.2
2017-Dec-09 06:30N 36°50' E 025°52'0 0.0
2017-Dec-09 06:00N 36°50' E 025°52'0 0.0
2017-Dec-09 05:30N 36°50' E 025°52'0 0.0
2017-Dec-09 05:00N 36°50' E 025°52'0 0.0
2017-Dec-09 04:31N 36°50' E 025°52'0 0.0
2017-Dec-09 04:00N 36°50' E 025°52'0 0.0
2017-Dec-09 03:30N 36°50' E 025°52'0 0.0
2017-Dec-09 03:00N 36°50' E 025°52'0 0.0
2017-Dec-09 02:30N 36°50' E 025°52'0 0.0
2017-Dec-09 02:00N 36°50' E 025°52'0 0.0
2017-Dec-09 01:30N 36°50' E 025°52'0 0.0
2017-Dec-09 01:00N 36°50' E 025°52'0 0.0
2017-Dec-09 00:30N 36°50' E 025°52'4 9.0
2017-Dec-09 00:00N 36°52' E 025°47'918.8
2017-Dec-08 23:30N 36°56' E 025°36'612.0
2017-Dec-08 23:00N 36°53' E 025°30'1 1.5
2017-Dec-08 22:31N 36°53' E 025°29'1122.2
2017-Dec-08 22:00N 37°01' E 025°19'611.5
2017-Dec-08 21:30N 37°06' E 025°22'1 2.7
2017-Dec-08 21:01N 37°07' E 025°21'1018.7
2017-Dec-08 20:30N 37°07' E 025°09'2 4.1
2017-Dec-08 19:58N 37°05' E 025°09'920.2
2017-Dec-08 19:31N 37°11' E 024°59'1122.1
2017-Dec-08 19:01N 37°17' E 024°48'1121.8
2017-Dec-08 18:30N 37°24' E 024°37'1121.9
2017-Dec-08 18:01N 37°30' E 024°26'1122.0
2017-Dec-08 17:30N 37°32' E 024°12'1122.1
2017-Dec-08 17:00N 37°35' E 023°59'1122.2
2017-Dec-08 16:30N 37°39' E 023°45'1121.7
2017-Dec-08 16:00N 37°48' E 023°38'917.6
2017-Dec-08 15:30N 37°57' E 023°38'0 0.0
2017-Dec-08 15:01N 37°57' E 023°38'0 0.0
2017-Dec-08 14:31N 37°57' E 023°38'0 0.0
2017-Dec-08 14:01N 37°57' E 023°38'0 0.0
2017-Dec-08 13:30N 37°57' E 023°38'0 0.1
2017-Dec-08 13:01N 37°57' E 023°38'815.3
2017-Dec-08 12:31N 37°49' E 023°40'1122.2
2017-Dec-08 12:00N 37°40' E 023°49'1422.9
2017-Dec-08 11:24N 37°35' E 024°05'923.1
2017-Dec-08 11:00N 37°31' E 024°16'1322.7
2017-Dec-08 10:26N 37°27' E 024°31'1123.4
2017-Dec-08 09:57N 37°21' E 024°42'1023.1
2017-Dec-08 09:31N 37°15' E 024°53'1223.1
2017-Dec-08 09:00N 37°08' E 025°04'4 5.9
2017-Dec-08 08:21N 37°05' E 025°08'618.6
2017-Dec-08 08:00N 37°10' E 025°14'815.2
2017-Dec-08 07:30N 37°06' E 025°22'0 0.0
2017-Dec-08 07:00N 37°06' E 025°22'612.4
2017-Dec-08 06:31N 37°11' E 025°28'1020.0
2017-Dec-08 06:01N 37°09' E 025°40'815.6
2017-Dec-08 05:31N 37°05' E 025°48'1122.9
2017-Dec-08 05:00N 36°55' E 025°56'4 7.1
2017-Dec-08 04:30N 36°57' E 026°00'1122.1
2017-Dec-08 04:01N 36°49' E 026°10'1122.9
2017-Dec-08 03:31N 36°39' E 026°17'5 3.2
2017-Dec-08 02:01N 36°35' E 026°21'018.0
2017-Dec-08 02:01N 36°35' E 026°20'1122.8
2017-Dec-08 01:30N 36°45' E 026°13'1122.9
2017-Dec-08 01:00N 36°55' E 026°05'510.9
2017-Dec-08 00:30N 36°54' E 025°58'1019.3
2017-Dec-08 00:01N 37°01' E 025°51'917.1
2017-Dec-07 23:31N 37°08' E 025°43'1122.3
2017-Dec-07 23:00N 37°13' E 025°30'918.8
2017-Dec-07 22:30N 37°06' E 025°22'2 3.7
2017-Dec-07 22:00N 37°08' E 025°20'918.9
2017-Dec-07 21:30N 37°07' E 025°09'2 3.7
2017-Dec-07 20:58N 37°05' E 025°09'919.8
2017-Dec-07 20:31N 37°14' E 025°04'1122.7
2017-Dec-07 20:00N 37°24' E 024°59'3 5.5
2017-Dec-07 19:30N 37°26' E 024°57'713.5
2017-Dec-07 19:00N 37°31' E 024°51'1122.4
2017-Dec-07 18:30N 37°31' E 024°37'1122.6
2017-Dec-07 18:00N 37°31' E 024°23'1121.9
2017-Dec-07 17:30N 37°33' E 024°09'1822.6
2017-Dec-07 16:43N 37°38' E 023°47'621.1
2017-Dec-07 16:27N 37°42' E 023°42'1022.5
2017-Dec-07 16:00N 37°51' E 023°37'612.6
2017-Dec-07 15:30N 37°57' E 023°38'0 0.0
2017-Dec-07 15:00N 37°57' E 023°38'0 0.0
2017-Dec-07 14:30N 37°57' E 023°38'0 0.0
2017-Dec-07 14:00N 37°57' E 023°38'0 0.0
2017-Dec-07 13:30N 37°57' E 023°38'0 0.1
2017-Dec-07 13:01N 37°57' E 023°38'816.0
2017-Dec-07 12:31N 37°49' E 023°41'1122.1
2017-Dec-07 12:00N 37°40' E 023°49'1622.8
2017-Dec-07 11:17N 37°34' E 024°08'723.1
2017-Dec-07 11:00N 37°31' E 024°16'1122.7
2017-Dec-07 10:30N 37°28' E 024°30'1823.2
2017-Dec-07 09:43N 37°17' E 024°48'523.1
2017-Dec-07 09:31N 37°14' E 024°53'1122.9
2017-Dec-07 09:01N 37°07' E 025°04'4 6.1
2017-Dec-07 08:22N 37°05' E 025°09'615.6
2017-Dec-07 08:00N 37°10' E 025°13'816.1
2017-Dec-07 07:30N 37°06' E 025°22'0 0.1
2017-Dec-07 07:01N 37°06' E 025°22'1317.1
2017-Dec-07 06:15N 37°10' E 025°38'522.7
2017-Dec-07 06:00N 37°07' E 025°44'714.5
2017-Dec-07 05:30N 37°02' E 025°50'1020.8
2017-Dec-07 05:00N 36°54' E 025°58'6 9.0
2017-Dec-07 04:18N 36°54' E 026°06'722.8
2017-Dec-07 04:00N 36°48' E 026°11'1223.1
2017-Dec-07 03:31N 36°38' E 026°18'4 1.7
2017-Dec-07 01:21N 36°35' E 026°21'822.1
2017-Dec-07 01:00N 36°41' E 026°16'1122.4
2017-Dec-07 00:30N 36°51' E 026°09'1020.4
2017-Dec-07 00:00N 36°56' E 025°58'2 4.1
2017-Dec-06 23:30N 36°56' E 025°55'1122.7
2017-Dec-06 23:01N 37°05' E 025°47'816.1
2017-Dec-06 22:31N 37°10' E 025°39'1019.1
2017-Dec-06 22:01N 37°11' E 025°27'611.9
2017-Dec-06 21:30N 37°06' E 025°22'3 5.8
2017-Dec-06 21:01N 37°08' E 025°20'  
Track history (hours):
 
Tides and Currents Weather Stations Pressure Air Temp Water Temp Dewpoint Dewpoint Depression Visibility Wind Speed Wind Dir Waves Ship Positions

Blue Star Naxos

Last reported at 2017-Dec-15 08:01 UTC. Time now 2017-Dec-15 08:30 UTC.
Position N 37°04' E 025°48'.

Length 124 m; draft 5 m.

Type: Passenger vessel. MMSI: 239923000.

Date/timePositionNaut miles runAvg speedWind from/ knotsBaromVisibWave heightAir tempDewpointWater temp
2017-Dec-15 08:01N 37°04' E 025°48'1122.6
2017-Dec-15 07:30N 36°55' E 025°56'1 2.5
2017-Dec-15 07:01N 36°56' E 025°55'1122.8
2017-Dec-15 06:31N 37°05' E 025°47'816.7
2017-Dec-15 06:01N 37°10' E 025°38'1019.4
2017-Dec-15 05:31N 37°10' E 025°26'4 8.7
2017-Dec-15 05:00N 37°06' E 025°22'714.6
2017-Dec-15 04:30N 37°10' E 025°14'7 8.6
2017-Dec-15 03:45N 37°05' E 025°08'2316.4
2017-Dec-15 02:20N 37°26' E 024°57'2216.5
2017-Dec-15 01:00N 37°31' E 024°30'1020.0
2017-Dec-15 00:30N 37°31' E 024°17'40 6.7
2017-Dec-14 18:30N 37°57' E 023°38'0 0.0
2017-Dec-14 18:00N 37°57' E 023°38'0 0.0
2017-Dec-14 17:30N 37°57' E 023°38'0 0.0
2017-Dec-14 17:00N 37°57' E 023°38'0 0.0
2017-Dec-14 16:30N 37°57' E 023°38'0 0.0
2017-Dec-14 16:00N 37°57' E 023°38'0 0.0
2017-Dec-14 15:00N 37°57' E 023°38'0 0.0
2017-Dec-14 14:31N 37°57' E 023°38'0 0.0
2017-Dec-14 14:00N 37°57' E 023°38'0 0.0
2017-Dec-14 13:30N 37°57' E 023°38'0 0.1
2017-Dec-14 13:00N 37°57' E 023°38'918.3
2017-Dec-14 12:30N 37°48' E 023°41'1122.0
2017-Dec-14 12:00N 37°40' E 023°50'1522.5
2017-Dec-14 11:21N 37°33' E 024°07'822.3
2017-Dec-14 11:00N 37°31' E 024°16'1122.2
2017-Dec-14 10:30N 37°28' E 024°30'1122.3
2017-Dec-14 09:59N 37°21' E 024°41'1122.2
2017-Dec-14 09:31N 37°15' E 024°52'1122.3
2017-Dec-14 09:01N 37°08' E 025°03'5 6.9
2017-Dec-14 08:16N 37°05' E 025°09'415.5
2017-Dec-14 07:59N 37°09' E 025°12'918.3
2017-Dec-14 07:31N 37°06' E 025°22'0 0.0
2017-Dec-14 07:00N 37°06' E 025°22'1316.0
2017-Dec-14 06:12N 37°10' E 025°38'422.0
2017-Dec-14 06:01N 37°08' E 025°42'713.9
2017-Dec-14 05:31N 37°03' E 025°48'1122.5
2017-Dec-14 05:00N 36°54' E 025°57'4 7.8
2017-Dec-14 04:31N 36°57' E 026°01'1122.0
2017-Dec-14 04:00N 36°49' E 026°10'1122.7
2017-Dec-14 03:31N 36°39' E 026°18'5 3.2
2017-Dec-14 01:55N 36°35' E 026°21'718.3
2017-Dec-14 01:30N 36°41' E 026°16'1019.4
2017-Dec-14 01:00N 36°49' E 026°10'1019.1
2017-Dec-14 00:30N 36°57' E 026°02'3 6.9
2017-Dec-14 00:00N 36°54' E 025°58'612.9
2017-Dec-13 23:31N 36°59' E 025°53'816.4
2017-Dec-13 23:01N 37°06' E 025°48'2010.8
2017-Dec-13 21:07N 37°06' E 025°22'216.0
2017-Dec-13 21:00N 37°08' E 025°21'917.9
2017-Dec-13 20:29N 37°07' E 025°09'2 3.4
2017-Dec-13 19:53N 37°05' E 025°09'821.1
2017-Dec-13 19:31N 37°10' E 025°01'1222.2
2017-Dec-13 18:57N 37°17' E 024°48'1022.1
2017-Dec-13 18:30N 37°23' E 024°38'1122.2
2017-Dec-13 18:00N 37°29' E 024°27'1122.2
2017-Dec-13 17:30N 37°32' E 024°13'1122.0
2017-Dec-13 17:01N 37°35' E 023°60'1322.1
2017-Dec-13 16:26N 37°39' E 023°45'922.0
2017-Dec-13 16:00N 37°47' E 023°39'918.9
2017-Dec-13 15:30N 37°57' E 023°38'0 0.3
2017-Dec-13 15:00N 37°57' E 023°38'0 0.0
2017-Dec-13 14:30N 37°57' E 023°38'0 0.0
2017-Dec-13 14:00N 37°57' E 023°38'0 0.0
2017-Dec-13 13:30N 37°57' E 023°38'0 0.0
2017-Dec-13 13:00N 37°57' E 023°38'815.2
2017-Dec-13 12:30N 37°49' E 023°41'1122.0
2017-Dec-13 12:00N 37°41' E 023°49'1722.8
2017-Dec-13 11:15N 37°33' E 024°09'1122.6
2017-Dec-13 10:45N 37°30' E 024°22'622.3
2017-Dec-13 10:29N 37°28' E 024°29'1122.8
2017-Dec-13 10:00N 37°22' E 024°40'1122.9
2017-Dec-13 09:30N 37°15' E 024°52'1122.8
2017-Dec-13 09:00N 37°08' E 025°03'5 7.4
2017-Dec-13 08:19N 37°05' E 025°09'514.0
2017-Dec-13 07:59N 37°09' E 025°12'817.1
2017-Dec-13 07:30N 37°06' E 025°22'0 0.5
2017-Dec-13 07:01N 37°06' E 025°22'713.0
2017-Dec-13 06:31N 36°60' E 025°20'1019.2
2017-Dec-13 06:00N 36°53' E 025°28'2 3.6
2017-Dec-13 05:30N 36°52' E 025°31'4 8.8
2017-Dec-13 05:00N 36°54' E 025°36'510.6
2017-Dec-13 04:31N 36°54' E 025°42'917.7
2017-Dec-13 04:01N 36°50' E 025°52'0 0.1
2017-Dec-13 03:30N 36°50' E 025°52'0 0.0
2017-Dec-13 03:00N 36°50' E 025°52'0 0.0
2017-Dec-13 02:30N 36°50' E 025°52'0 0.0
2017-Dec-13 02:00N 36°50' E 025°52'0 0.0
2017-Dec-13 01:30N 36°50' E 025°52'2 3.9
2017-Dec-13 01:01N 36°50' E 025°49'1019.8
2017-Dec-13 00:29N 36°55' E 025°38'4 9.5
2017-Dec-13 00:00N 36°54' E 025°33'3 6.4
2017-Dec-12 23:30N 36°52' E 025°29'5 9.5
2017-Dec-12 23:01N 36°55' E 025°25'1019.9
2017-Dec-12 22:31N 37°03' E 025°18'5 9.1
2017-Dec-12 22:00N 37°06' E 025°22'612.1
2017-Dec-12 21:30N 37°10' E 025°16'815.8
2017-Dec-12 21:00N 37°05' E 025°08'3 5.4
2017-Dec-12 20:30N 37°07' E 025°06'1121.9
2017-Dec-12 20:00N 37°18' E 025°02'1018.4
2017-Dec-12 19:29N 37°26' E 024°57'610.3
2017-Dec-12 18:56N 37°31' E 024°52'922.5
2017-Dec-12 18:31N 37°31' E 024°41'1122.4
2017-Dec-12 18:01N 37°31' E 024°26'1122.1
2017-Dec-12 17:31N 37°32' E 024°13'2122.1
2017-Dec-12 16:35N 37°38' E 023°48'222.0
2017-Dec-12 16:30N 37°39' E 023°46'1121.2
2017-Dec-12 16:00N 37°47' E 023°39'918.8
2017-Dec-12 15:31N 37°57' E 023°38'0 0.3
2017-Dec-12 15:00N 37°57' E 023°38'0 0.0
2017-Dec-12 14:30N 37°57' E 023°38'0 0.0
2017-Dec-12 14:00N 37°57' E 023°38'0 0.0
2017-Dec-12 13:30N 37°57' E 023°38'0 0.0
2017-Dec-12 13:00N 37°57' E 023°38'713.4
2017-Dec-12 12:31N 37°50' E 023°40'1122.3
2017-Dec-12 12:01N 37°41' E 023°48'2023.2
2017-Dec-12 11:10N 37°33' E 024°11'523.0
2017-Dec-12 10:57N 37°31' E 024°16'1022.5
2017-Dec-12 10:30N 37°28' E 024°29'1122.9
2017-Dec-12 10:01N 37°21' E 024°40'1223.0
2017-Dec-12 09:30N 37°15' E 024°52'1123.0
2017-Dec-12 09:01N 37°08' E 025°03'5 5.9
2017-Dec-12 08:13N 37°05' E 025°08'519.5
2017-Dec-12 07:57N 37°09' E 025°13'818.9
2017-Dec-12 07:31N 37°06' E 025°22'0 0.3
2017-Dec-12 07:00N 37°06' E 025°22'714.6
2017-Dec-12 06:30N 37°11' E 025°29'1020.7
2017-Dec-12 06:00N 37°08' E 025°41'815.1
2017-Dec-12 05:30N 37°03' E 025°48'1122.7
2017-Dec-12 05:01N 36°54' E 025°57'3 6.7
2017-Dec-12 04:31N 36°57' E 026°00'1122.1
2017-Dec-12 04:01N 36°49' E 026°10'1122.9
2017-Dec-12 03:31N 36°39' E 026°17'5 3.0
2017-Dec-12 01:45N 36°35' E 026°21'418.1
2017-Dec-12 01:30N 36°39' E 026°18'1020.2
2017-Dec-12 01:00N 36°47' E 026°11'1119.9
2017-Dec-12 00:28N 36°56' E 026°04'510.2
2017-Dec-12 00:00N 36°54' E 025°58'611.8
2017-Dec-11 23:30N 36°58' E 025°53'917.5
2017-Dec-11 23:00N 37°06' E 025°48'815.2
2017-Dec-11 22:30N 37°10' E 025°39'917.9
2017-Dec-11 22:01N 37°12' E 025°29'715.0
2017-Dec-11 21:31N 37°06' E 025°22'0 0.6
2017-Dec-11 21:01N 37°06' E 025°22'1017.6
2017-Dec-11 20:25N 37°07' E 025°09'2 4.3
2017-Dec-11 19:53N 37°05' E 025°08'821.5
2017-Dec-11 19:30N 37°10' E 025°00'1122.4
2017-Dec-11 19:00N 37°17' E 024°49'1122.0
2017-Dec-11 18:30N 37°23' E 024°38'1122.1
2017-Dec-11 18:00N 37°30' E 024°27'1122.4
2017-Dec-11 17:31N 37°32' E 024°13'1122.0
2017-Dec-11 17:00N 37°35' E 023°59'1122.0
2017-Dec-11 16:31N 37°38' E 023°46'1021.0
2017-Dec-11 16:01N 37°47' E 023°39'1019.3
2017-Dec-11 15:31N 37°57' E 023°38'0 0.3
2017-Dec-11 15:01N 37°57' E 023°38'0 0.0
2017-Dec-11 14:31N 37°57' E 023°38'0 0.0
2017-Dec-11 14:01N 37°57' E 023°38'0 0.0
2017-Dec-11 13:31N 37°57' E 023°38'0 0.0
2017-Dec-11 13:01N 37°57' E 023°38'713.9
2017-Dec-11 12:31N 37°50' E 023°40'1122.4
2017-Dec-11 12:01N 37°41' E 023°48'2323.1
2017-Dec-11 11:01N 37°32' E 024°15'022.7
2017-Dec-11 11:00N 37°31' E 024°15'1222.6
2017-Dec-11 10:29N 37°28' E 024°29'1225.2
2017-Dec-11 10:00N 37°21' E 024°41'1020.7
2017-Dec-11 09:31N 37°15' E 024°52'1122.8
2017-Dec-11 09:01N 37°08' E 025°03'5 6.9
2017-Dec-11 08:18N 37°05' E 025°09'415.2
2017-Dec-11 08:01N 37°09' E 025°12'917.3
2017-Dec-11 07:31N 37°06' E 025°22'0 0.0
2017-Dec-11 07:00N 37°06' E 025°22'4 9.0
2017-Dec-11 06:31N 37°03' E 025°18'1121.5
2017-Dec-11 06:00N 36°54' E 025°26'4 8.1
2017-Dec-11 05:31N 36°52' E 025°31'5 9.6
2017-Dec-11 05:00N 36°54' E 025°36'5 9.5
2017-Dec-11 04:30N 36°54' E 025°42'918.4
2017-Dec-11 04:00N 36°50' E 025°52'0 0.1
2017-Dec-11 03:30N 36°50' E 025°52'0 0.0
2017-Dec-11 03:00N 36°50' E 025°52'0 0.0
2017-Dec-11 02:30N 36°50' E 025°52'0 0.0
2017-Dec-11 02:00N 36°50' E 025°52'0 0.0
2017-Dec-11 01:29N 36°50' E 025°52'0 0.0
2017-Dec-11 01:00N 36°50' E 025°52'713.7
2017-Dec-11 00:30N 36°53' E 025°44'714.2
2017-Dec-11 00:00N 36°56' E 025°36'611.6
2017-Dec-10 23:31N 36°53' E 025°30'1 3.0
2017-Dec-10 23:00N 36°52' E 025°28'815.6
2017-Dec-10 22:31N 36°58' E 025°22'916.9
2017-Dec-10 22:00N 37°06' E 025°21'2 3.1
2017-Dec-10 21:30N 37°08' E 025°20'918.5
2017-Dec-10 21:00N 37°07' E 025°09'2 4.3
2017-Dec-10 20:30N 37°05' E 025°08'1121.5
2017-Dec-10 20:00N 37°15' E 025°03'1121.9
2017-Dec-10 19:30N 37°25' E 024°58'510.2
2017-Dec-10 19:00N 37°30' E 024°56'1122.0
2017-Dec-10 18:30N 37°31' E 024°42'1122.6
2017-Dec-10 18:00N 37°31' E 024°28'1122.6
2017-Dec-10 17:30N 37°31' E 024°14'1122.6
2017-Dec-10 17:00N 37°35' E 024°00'1122.5
2017-Dec-10 16:30N 37°39' E 023°47'1121.3
2017-Dec-10 16:01N 37°47' E 023°38'1019.5
2017-Dec-10 15:30N 37°57' E 023°38'0 0.2
2017-Dec-10 15:00N 37°57' E 023°38'0 0.0
2017-Dec-10 14:30N 37°57' E 023°38'0 0.0
2017-Dec-10 14:00N 37°57' E 023°38'0 0.0
2017-Dec-10 13:30N 37°57' E 023°38'3 5.9
2017-Dec-10 13:00N 37°54' E 023°38'1122.5
2017-Dec-10 12:30N 37°44' E 023°44'2021.7
2017-Dec-10 11:35N 37°34' E 024°06'222.3
2017-Dec-10 11:30N 37°34' E 024°08'1020.4
2017-Dec-10 11:00N 37°31' E 024°21'1121.5
2017-Dec-10 10:30N 37°26' E 024°33'1122.0
2017-Dec-10 10:00N 37°20' E 024°44'1121.5
2017-Dec-10 09:30N 37°14' E 024°55'1122.0
2017-Dec-10 09:00N 37°07' E 025°06'3 4.0
2017-Dec-10 08:21N 37°05' E 025°09'514.1
2017-Dec-10 08:01N 37°09' E 025°12'917.3
2017-Dec-10 07:31N 37°06' E 025°22'0 0.1
2017-Dec-10 07:01N 37°06' E 025°22'510.2
2017-Dec-10 06:31N 37°02' E 025°19'1121.3
2017-Dec-10 06:01N 36°54' E 025°27'3 6.3
2017-Dec-10 05:30N 36°52' E 025°31'611.8
2017-Dec-10 05:01N 36°55' E 025°37'612.3
2017-Dec-10 04:30N 36°53' E 025°44'714.5
2017-Dec-10 04:00N 36°50' E 025°52'0 0.1
2017-Dec-10 03:31N 36°50' E 025°52'0 0.0
2017-Dec-10 03:00N 36°50' E 025°52'0 0.0
2017-Dec-10 02:30N 36°50' E 025°52'0 0.0
2017-Dec-10 02:00N 36°50' E 025°52'0 0.0
2017-Dec-10 01:30N 36°50' E 025°52'0 0.0
2017-Dec-10 01:00N 36°50' E 025°52'0 0.0
2017-Dec-10 00:30N 36°50' E 025°52'0 0.0
2017-Dec-10 00:00N 36°50' E 025°52'0 0.0
2017-Dec-09 23:30N 36°50' E 025°52'0 0.0
2017-Dec-09 22:59N 36°50' E 025°52'0 0.0
2017-Dec-09 22:30N 36°50' E 025°52'0 0.0
2017-Dec-09 22:00N 36°50' E 025°52'0 0.0
2017-Dec-09 21:30N 36°50' E 025°52'0 0.0
2017-Dec-09 21:00N 36°50' E 025°52'0 0.0
2017-Dec-09 20:31N 36°50' E 025°52'0 0.0
2017-Dec-09 19:55N 36°50' E 025°52'0 0.0
2017-Dec-09 19:30N 36°50' E 025°52'0 0.0
2017-Dec-09 19:00N 36°50' E 025°52'0 0.0
2017-Dec-09 18:07N 36°50' E 025°52'0 0.0
2017-Dec-09 18:00N 36°50' E 025°52'0 0.0
2017-Dec-09 17:30N 36°50' E 025°52'0 0.0
2017-Dec-09 17:00N 36°50' E 025°52'0 0.0
2017-Dec-09 16:30N 36°50' E 025°52'0 0.0
2017-Dec-09 16:00N 36°50' E 025°52'0 0.0
2017-Dec-09 15:30N 36°50' E 025°52'0 0.0
2017-Dec-09 15:00N 36°50' E 025°52'0 0.0
2017-Dec-09 06:32N 36°50' E 025°52'0 0.2
2017-Dec-09 06:30N 36°50' E 025°52'0 0.0
2017-Dec-09 06:00N 36°50' E 025°52'0 0.0
2017-Dec-09 05:30N 36°50' E 025°52'0 0.0
2017-Dec-09 05:00N 36°50' E 025°52'0 0.0
2017-Dec-09 04:31N 36°50' E 025°52'0 0.0
2017-Dec-09 04:00N 36°50' E 025°52'0 0.0
2017-Dec-09 03:30N 36°50' E 025°52'0 0.0
2017-Dec-09 03:00N 36°50' E 025°52'0 0.0
2017-Dec-09 02:30N 36°50' E 025°52'0 0.0
2017-Dec-09 02:00N 36°50' E 025°52'0 0.0
2017-Dec-09 01:30N 36°50' E 025°52'0 0.0
2017-Dec-09 01:00N 36°50' E 025°52'0 0.0
2017-Dec-09 00:30N 36°50' E 025°52'4 9.0
2017-Dec-09 00:00N 36°52' E 025°47'918.8
2017-Dec-08 23:30N 36°56' E 025°36'612.0
2017-Dec-08 23:00N 36°53' E 025°30'1 1.5
2017-Dec-08 22:31N 36°53' E 025°29'1122.2
2017-Dec-08 22:00N 37°01' E 025°19'611.5
2017-Dec-08 21:30N 37°06' E 025°22'1 2.7
2017-Dec-08 21:01N 37°07' E 025°21'1018.7
2017-Dec-08 20:30N 37°07' E 025°09'2 4.1
2017-Dec-08 19:58N 37°05' E 025°09'920.2
2017-Dec-08 19:31N 37°11' E 024°59'1122.1
2017-Dec-08 19:01N 37°17' E 024°48'1121.8
2017-Dec-08 18:30N 37°24' E 024°37'1121.9
2017-Dec-08 18:01N 37°30' E 024°26'1122.0
2017-Dec-08 17:30N 37°32' E 024°12'1122.1
2017-Dec-08 17:00N 37°35' E 023°59'1122.2
2017-Dec-08 16:30N 37°39' E 023°45'1121.7
2017-Dec-08 16:00N 37°48' E 023°38'917.6
2017-Dec-08 15:30N 37°57' E 023°38'0 0.0
2017-Dec-08 15:01N 37°57' E 023°38'0 0.0
2017-Dec-08 14:31N 37°57' E 023°38'0 0.0
2017-Dec-08 14:01N 37°57' E 023°38'0 0.0
2017-Dec-08 13:30N 37°57' E 023°38'0 0.1
2017-Dec-08 13:01N 37°57' E 023°38'815.3
2017-Dec-08 12:31N 37°49' E 023°40'1122.2
2017-Dec-08 12:00N 37°40' E 023°49'1422.9
2017-Dec-08 11:24N 37°35' E 024°05'923.1
2017-Dec-08 11:00N 37°31' E 024°16'1322.7
2017-Dec-08 10:26N 37°27' E 024°31'1123.4
2017-Dec-08 09:57N 37°21' E 024°42'1023.1
2017-Dec-08 09:31N 37°15' E 024°53'1223.1
2017-Dec-08 09:00N 37°08' E 025°04'4 5.9
2017-Dec-08 08:21N 37°05' E 025°08'618.6
2017-Dec-08 08:00N 37°10' E 025°14'815.2
2017-Dec-08 07:30N 37°06' E 025°22'0 0.0
2017-Dec-08 07:00N 37°06' E 025°22'612.4
2017-Dec-08 06:31N 37°11' E 025°28'1020.0
2017-Dec-08 06:01N 37°09' E 025°40'815.6
2017-Dec-08 05:31N 37°05' E 025°48'1122.9
2017-Dec-08 05:00N 36°55' E 025°56'4 7.1
2017-Dec-08 04:30N 36°57' E 026°00'1122.1
2017-Dec-08 04:01N 36°49' E 026°10'1122.9
2017-Dec-08 03:31N 36°39' E 026°17'5 3.2
2017-Dec-08 02:01N 36°35' E 026°21'018.0
2017-Dec-08 02:01N 36°35' E 026°20'1122.8
2017-Dec-08 01:30N 36°45' E 026°13'1122.9
2017-Dec-08 01:00N 36°55' E 026°05'510.9
2017-Dec-08 00:30N 36°54' E 025°58'1019.3
2017-Dec-08 00:01N 37°01' E 025°51'917.1
2017-Dec-07 23:31N 37°08' E 025°43'1122.3
2017-Dec-07 23:00N 37°13' E 025°30'918.8
2017-Dec-07 22:30N 37°06' E 025°22'2 3.7
2017-Dec-07 22:00N 37°08' E 025°20'918.9
2017-Dec-07 21:30N 37°07' E 025°09'2 3.7
2017-Dec-07 20:58N 37°05' E 025°09'919.8
2017-Dec-07 20:31N 37°14' E 025°04'1122.7
2017-Dec-07 20:00N 37°24' E 024°59'3 5.5
2017-Dec-07 19:30N 37°26' E 024°57'713.5
2017-Dec-07 19:00N 37°31' E 024°51'1122.4
2017-Dec-07 18:30N 37°31' E 024°37'1122.6
2017-Dec-07 18:00N 37°31' E 024°23'1121.9
2017-Dec-07 17:30N 37°33' E 024°09'1822.6
2017-Dec-07 16:43N 37°38' E 023°47'621.1
2017-Dec-07 16:27N 37°42' E 023°42'1022.5
2017-Dec-07 16:00N 37°51' E 023°37'612.6
2017-Dec-07 15:30N 37°57' E 023°38'0 0.0
2017-Dec-07 15:00N 37°57' E 023°38'0 0.0
2017-Dec-07 14:30N 37°57' E 023°38'0 0.0
2017-Dec-07 14:00N 37°57' E 023°38'0 0.0
2017-Dec-07 13:30N 37°57' E 023°38'0 0.1
2017-Dec-07 13:01N 37°57' E 023°38'816.0
2017-Dec-07 12:31N 37°49' E 023°41'1122.1
2017-Dec-07 12:00N 37°40' E 023°49'1622.8
2017-Dec-07 11:17N 37°34' E 024°08'723.1
2017-Dec-07 11:00N 37°31' E 024°16'1122.7
2017-Dec-07 10:30N 37°28' E 024°30'1823.2
2017-Dec-07 09:43N 37°17' E 024°48'523.1
2017-Dec-07 09:31N 37°14' E 024°53'1122.9
2017-Dec-07 09:01N 37°07' E 025°04'4 6.1
2017-Dec-07 08:22N 37°05' E 025°09'615.6
2017-Dec-07 08:00N 37°10' E 025°13'816.1
2017-Dec-07 07:30N 37°06' E 025°22'0 0.1
2017-Dec-07 07:01N 37°06' E 025°22'1317.1
2017-Dec-07 06:15N 37°10' E 025°38'522.7
2017-Dec-07 06:00N 37°07' E 025°44'714.5
2017-Dec-07 05:30N 37°02' E 025°50'1020.8
2017-Dec-07 05:00N 36°54' E 025°58'6 9.0
2017-Dec-07 04:18N 36°54' E 026°06'722.8
2017-Dec-07 04:00N 36°48' E 026°11'1223.1
2017-Dec-07 03:31N 36°38' E 026°18'4 1.7
2017-Dec-07 01:21N 36°35' E 026°21'822.1
2017-Dec-07 01:00N 36°41' E 026°16'1122.4
2017-Dec-07 00:30N 36°51' E 026°09'1020.4
2017-Dec-07 00:00N 36°56' E 025°58'2 4.1
2017-Dec-06 23:30N 36°56' E 025°55'1122.7
2017-Dec-06 23:01N 37°05' E 025°47'816.1
2017-Dec-06 22:31N 37°10' E 025°39'1019.1
2017-Dec-06 22:01N 37°11' E 025°27'611.9
2017-Dec-06 21:30N 37°06' E 025°22'3 5.8
2017-Dec-06 21:01N 37°08' E 025°20'  

Dump ship's entire track history